Time;durP1;ratioP1;P1;durP2;ratioP2;P2;SDS_P1;SDS_P2;PMS_P1;PMS_P2;Temp;Humidity;BMP_temperature;BMP_pressure;BME280_temperature;BME280_humidity;BME280_pressure;Samples;Min_cycle;Max_cycle;Signal;HPM_P1;HPM_P2
2021/10/27 00:00:51;;;;;;;22.30;18.10;;;16.60;99.60;;;;;;5053083;28;20051;-69
2021/10/27 00:03:16;;;;;;;21.88;17.38;;;16.50;99.50;;;;;;5054381;28;20035;-70
2021/10/27 00:05:42;;;;;;;22.85;18.02;;;16.50;99.50;;;;;;5057313;28;20098;-70
2021/10/27 00:08:08;;;;;;;22.35;18.25;;;16.50;99.50;;;;;;5057382;28;20025;-79
2021/10/27 00:10:35;;;;;;;24.67;19.23;;;16.50;99.40;;;;;;5058127;28;20034;-76
2021/10/27 00:13:01;;;;;;;28.50;22.25;;;16.40;99.30;;;;;;5058714;28;20025;-70
2021/10/27 00:15:27;;;;;;;22.58;18.95;;;16.40;99.40;;;;;;5056649;28;20041;-69
2021/10/27 00:17:52;;;;;;;25.13;19.02;;;16.40;99.40;;;;;;5056774;28;20032;-70
2021/10/27 00:20:18;;;;;;;26.42;18.73;;;16.30;99.50;;;;;;5056844;28;20029;-69
2021/10/27 00:22:44;;;;;;;28.02;19.45;;;16.30;99.70;;;;;;5056792;28;20501;-69
2021/10/27 00:25:10;;;;;;;24.42;19.33;;;16.30;99.70;;;;;;5056421;28;20044;-70
2021/10/27 00:27:36;;;;;;;23.35;18.65;;;16.30;99.80;;;;;;5056875;28;20469;-70
2021/10/27 00:30:03;;;;;;;22.48;17.75;;;16.20;99.80;;;;;;5056772;28;20413;-74
2021/10/27 00:32:29;;;;;;;23.83;17.88;;;16.10;99.90;;;;;;5055248;28;20017;-70
2021/10/27 00:34:54;;;;;;;23.60;19.33;;;16.10;99.90;;;;;;5056688;28;20488;-70
2021/10/27 00:37:20;;;;;;;24.05;18.50;;;16.10;99.90;;;;;;5055246;28;20021;-69
2021/10/27 00:39:47;;;;;;;23.15;18.33;;;16.10;99.90;;;;;;5056289;28;20104;-70
2021/10/27 00:42:14;;;;;;;26.42;18.80;;;16.00;99.90;;;;;;5056171;28;20021;-71
2021/10/27 00:44:41;;;;;;;22.52;17.95;;;16.00;99.90;;;;;;5054927;28;20048;-69
2021/10/27 00:47:12;;;;;;;22.33;17.67;;;16.00;99.90;;;;;;5056648;28;20017;-69
2021/10/27 00:49:45;;;;;;;21.90;18.20;;;15.90;99.90;;;;;;5056475;28;20061;-69
2021/10/27 00:52:14;;;;;;;21.83;19.02;;;15.90;99.90;;;;;;5056123;28;20029;-68
2021/10/27 00:54:43;;;;;;;24.80;18.20;;;15.90;99.90;;;;;;5056079;28;20540;-71
2021/10/27 00:57:12;;;;;;;20.77;16.55;;;15.90;99.90;;;;;;5056043;28;20060;-71
2021/10/27 00:59:40;;;;;;;23.38;18.27;;;15.80;99.90;;;;;;5056459;28;20021;-73
2021/10/27 01:02:06;;;;;;;25.00;18.23;;;15.80;99.90;;;;;;5056824;28;20025;-72
2021/10/27 01:04:32;;;;;;;22.98;17.95;;;15.80;99.90;;;;;;5056191;28;20033;-70
2021/10/27 01:06:59;;;;;;;18.65;16.08;;;15.80;99.90;;;;;;5055765;28;20039;-70
2021/10/27 01:09:25;;;;;;;22.95;17.73;;;15.70;99.90;;;;;;5055824;28;20021;-72
2021/10/27 01:11:52;;;;;;;20.60;16.77;;;15.70;99.90;;;;;;5055999;28;20036;-69
2021/10/27 01:14:19;;;;;;;21.20;16.75;;;15.60;99.90;;;;;;5055921;28;20070;-71
2021/10/27 01:16:46;;;;;;;20.20;15.20;;;15.60;99.90;;;;;;5055994;28;20108;-74
2021/10/27 01:19:12;;;;;;;19.88;16.02;;;15.50;99.90;;;;;;5055704;28;20096;-75
2021/10/27 01:21:40;;;;;;;20.50;15.25;;;15.50;99.90;;;;;;5056213;28;20099;-69
2021/10/27 01:24:06;;;;;;;19.45;15.52;;;15.50;99.90;;;;;;5055757;28;20044;-71
2021/10/27 01:26:32;;;;;;;20.77;14.52;;;15.50;99.90;;;;;;5055740;28;20470;-70
2021/10/27 01:28:58;;;;;;;20.92;14.38;;;15.40;99.90;;;;;;5055615;28;20039;-70
2021/10/27 01:31:24;;;;;;;20.20;14.73;;;15.50;99.90;;;;;;5055437;28;20489;-72
2021/10/27 01:33:50;;;;;;;17.60;14.02;;;15.40;99.80;;;;;;5055432;28;20116;-73
2021/10/27 01:36:18;;;;;;;21.50;15.32;;;15.40;99.80;;;;;;5055866;28;20051;-70
2021/10/27 01:38:45;;;;;;;20.40;15.43;;;15.40;99.90;;;;;;5055803;28;20102;-70
2021/10/27 01:41:11;;;;;;;20.27;15.40;;;15.40;99.90;;;;;;5055415;28;20044;-69
2021/10/27 01:43:52;;;;;;;20.50;14.57;;;15.30;99.90;;;;;;5055290;28;20438;-72
2021/10/27 01:46:30;;;;;;;19.02;14.63;;;15.30;99.90;;;;;;5055438;28;20504;-71
2021/10/27 01:48:57;;;;;;;19.48;14.50;;;15.30;99.80;;;;;;5055191;28;20470;-69
2021/10/27 01:51:22;;;;;;;18.02;13.93;;;15.30;99.90;;;;;;5055093;28;20075;-70
2021/10/27 01:53:48;;;;;;;17.70;13.55;;;15.30;99.90;;;;;;5055249;28;20381;-69
2021/10/27 01:56:14;;;;;;;19.75;14.32;;;15.20;99.90;;;;;;5055239;28;20025;-70
2021/10/27 01:58:39;;;;;;;20.13;14.45;;;15.20;99.80;;;;;;5055340;28;20029;-79
2021/10/27 02:01:05;;;;;;;19.13;13.60;;;15.20;99.90;;;;;;5055088;28;20477;-80
2021/10/27 02:03:31;;;;;;;16.95;13.48;;;15.20;99.90;;;;;;5054963;28;20414;-72
2021/10/27 02:05:57;;;;;;;16.40;12.73;;;15.20;99.90;;;;;;5054927;28;20029;-70
2021/10/27 02:08:23;;;;;;;15.63;12.95;;;15.10;99.80;;;;;;5055047;28;20044;-71
2021/10/27 02:10:49;;;;;;;16.33;13.50;;;15.00;99.90;;;;;;5054685;28;20032;-71
2021/10/27 02:13:14;;;;;;;21.15;14.05;;;15.10;99.90;;;;;;5054622;28;20040;-70
2021/10/27 02:15:42;;;;;;;19.05;13.60;;;15.00;99.90;;;;;;5054779;28;20095;-69
2021/10/27 02:18:08;;;;;;;15.75;12.73;;;15.10;99.90;;;;;;5054584;28;20017;-70
2021/10/27 02:20:33;;;;;;;17.80;12.93;;;15.00;99.90;;;;;;5054658;28;20110;-75
2021/10/27 02:22:59;;;;;;;16.02;13.38;;;15.00;99.90;;;;;;5054425;28;20052;-74
2021/10/27 02:25:25;;;;;;;19.73;12.63;;;15.00;99.90;;;;;;5054014;28;20036;-70
2021/10/27 02:27:51;;;;;;;17.70;13.48;;;15.00;99.80;;;;;;5054559;28;20351;-70
2021/10/27 02:30:16;;;;;;;15.80;11.80;;;15.00;99.80;;;;;;5054600;28;20079;-70
2021/10/27 02:32:42;;;;;;;16.75;11.32;;;15.00;99.80;;;;;;5054497;28;20120;-69
2021/10/27 02:35:08;;;;;;;14.68;11.80;;;14.90;99.50;;;;;;5054586;28;20029;-73
2021/10/27 02:37:34;;;;;;;15.50;11.45;;;14.90;99.30;;;;;;5054401;28;20424;-70
2021/10/27 02:39:59;;;;;;;14.68;11.60;;;14.90;99.20;;;;;;5054674;28;20021;-72
2021/10/27 02:42:25;;;;;;;19.70;11.73;;;14.80;99.10;;;;;;5065703;28;20088;-76
2021/10/27 02:44:51;;;;;;;15.75;10.80;;;14.80;99.20;;;;;;5078426;28;20033;-78
2021/10/27 02:47:16;;;;;;;13.95;10.60;;;14.80;99.10;;;;;;5071165;28;20037;-71
2021/10/27 02:49:42;;;;;;;13.68;11.02;;;14.70;98.90;;;;;;5056628;28;20078;-69
2021/10/27 02:52:08;;;;;;;15.57;11.15;;;14.70;98.80;;;;;;5055540;28;20028;-70
2021/10/27 02:54:34;;;;;;;16.17;10.32;;;14.70;98.70;;;;;;5054037;28;20033;-70
2021/10/27 02:57:00;;;;;;;16.60;10.73;;;14.70;98.70;;;;;;5054269;28;20025;-68
2021/10/27 02:59:25;;;;;;;13.77;10.02;;;14.70;98.50;;;;;;5053907;28;20025;-70
2021/10/27 03:01:51;;;;;;;14.40;10.25;;;14.60;98.30;;;;;;5053809;28;20074;-70
2021/10/27 03:04:17;;;;;;;14.52;10.00;;;14.60;98.10;;;;;;5053984;28;20040;-70
2021/10/27 03:06:43;;;;;;;13.75;10.50;;;14.60;98.00;;;;;;5053972;28;20029;-69
2021/10/27 03:09:09;;;;;;;20.17;10.57;;;14.60;97.90;;;;;;5053892;28;20031;-69
2021/10/27 03:11:35;;;;;;;12.95;10.05;;;14.50;97.80;;;;;;5053771;28;20053;-72
2021/10/27 03:14:02;;;;;;;13.15;9.73;;;14.50;97.80;;;;;;5053781;28;20060;-69
2021/10/27 03:16:28;;;;;;;13.32;9.70;;;14.50;97.70;;;;;;5053624;28;20021;-70
2021/10/27 03:18:53;;;;;;;12.80;9.57;;;14.50;97.50;;;;;;5053709;28;20037;-68
2021/10/27 03:21:19;;;;;;;14.90;10.30;;;14.50;97.50;;;;;;5053374;28;20025;-70
2021/10/27 03:23:45;;;;;;;13.30;9.45;;;14.50;97.50;;;;;;5053366;28;20075;-72
2021/10/27 03:26:10;;;;;;;12.30;9.90;;;14.50;97.50;;;;;;5053591;28;20497;-73
2021/10/27 03:28:36;;;;;;;14.55;9.15;;;14.50;97.70;;;;;;5053600;28;20025;-70
2021/10/27 03:31:02;;;;;;;19.35;10.05;;;14.40;97.30;;;;;;5053559;28;20074;-70
2021/10/27 03:33:28;;;;;;;11.82;9.45;;;14.40;97.30;;;;;;5053430;28;20036;-70
2021/10/27 03:35:53;;;;;;;13.13;9.18;;;14.40;97.30;;;;;;5053396;28;20039;-69
2021/10/27 03:38:19;;;;;;;11.73;8.93;;;14.50;97.30;;;;;;5052493;28;20099;-70
2021/10/27 03:40:45;;;;;;;12.65;10.10;;;14.50;97.20;;;;;;5053250;28;20443;-71
2021/10/27 03:43:11;;;;;;;10.73;8.50;;;14.40;97.10;;;;;;5053059;28;20501;-71
2021/10/27 03:45:37;;;;;;;12.68;8.95;;;14.40;97.00;;;;;;5052970;28;20049;-69
2021/10/27 03:48:04;;;;;;;14.18;8.82;;;14.40;97.00;;;;;;5053387;28;20096;-70
2021/10/27 03:50:29;;;;;;;11.98;8.73;;;14.40;96.80;;;;;;5053570;28;20433;-70
2021/10/27 03:52:55;;;;;;;13.52;9.45;;;14.40;97.00;;;;;;5053777;28;20055;-69
2021/10/27 03:55:21;;;;;;;13.43;9.68;;;14.40;96.90;;;;;;5053959;28;20031;-71
2021/10/27 03:57:46;;;;;;;13.73;9.50;;;14.40;96.90;;;;;;5054237;28;20104;-69
2021/10/27 04:00:13;;;;;;;10.38;8.32;;;14.40;96.70;;;;;;5054049;28;20060;-69
2021/10/27 04:02:42;;;;;;;12.63;9.20;;;14.40;96.80;;;;;;5053809;28;20029;-69
2021/10/27 04:05:09;;;;;;;14.18;8.60;;;14.40;96.60;;;;;;5052952;28;20424;-70
2021/10/27 04:07:37;;;;;;;11.30;8.93;;;14.40;96.60;;;;;;5052879;28;20021;-70
2021/10/27 04:10:07;;;;;;;12.45;9.00;;;14.40;96.60;;;;;;5052690;28;20479;-69
2021/10/27 04:12:34;;;;;;;12.45;9.27;;;14.40;96.60;;;;;;5053080;28;20044;-71
2021/10/27 04:15:00;;;;;;;13.93;8.82;;;14.40;96.50;;;;;;5052648;28;20094;-69
2021/10/27 04:17:26;;;;;;;12.00;9.15;;;14.40;96.40;;;;;;5052785;28;20087;-70
2021/10/27 04:19:51;;;;;;;15.88;9.35;;;14.30;96.50;;;;;;5052714;28;20435;-69
2021/10/27 04:22:17;;;;;;;11.13;8.45;;;14.30;96.40;;;;;;5053069;28;20056;-72
2021/10/27 04:24:43;;;;;;;11.57;9.50;;;14.30;96.40;;;;;;5052830;28;20190;-69
2021/10/27 04:27:08;;;;;;;10.98;9.40;;;14.30;96.50;;;;;;5053107;28;20025;-74
2021/10/27 04:29:34;;;;;;;13.93;9.82;;;14.20;96.30;;;;;;5053671;28;20025;-79
2021/10/27 04:32:00;;;;;;;11.18;9.38;;;14.20;96.50;;;;;;5053248;28;20086;-69
2021/10/27 04:34:26;;;;;;;12.75;9.80;;;14.20;96.40;;;;;;5051524;28;20036;-69
2021/10/27 04:36:52;;;;;;;14.73;10.82;;;14.20;96.40;;;;;;5052810;28;20033;-69
2021/10/27 04:39:18;;;;;;;13.57;9.20;;;14.20;96.50;;;;;;5052535;28;20039;-70
2021/10/27 04:41:43;;;;;;;14.18;10.73;;;14.20;96.60;;;;;;5052796;28;20035;-69
2021/10/27 04:44:09;;;;;;;14.88;10.77;;;14.10;96.60;;;;;;5053298;28;20037;-71
2021/10/27 04:46:35;;;;;;;13.38;9.68;;;14.10;96.60;;;;;;5053343;28;20557;-74
2021/10/27 04:49:01;;;;;;;12.45;10.43;;;14.10;96.70;;;;;;5053588;28;20032;-70
2021/10/27 04:51:27;;;;;;;13.32;9.75;;;14.10;96.70;;;;;;5056402;28;20488;-69
2021/10/27 04:53:52;;;;;;;13.57;9.93;;;14.00;96.80;;;;;;5056485;28;20028;-70
2021/10/27 04:56:18;;;;;;;14.48;10.40;;;14.00;96.90;;;;;;5056180;28;20083;-69
2021/10/27 04:58:44;;;;;;;12.43;9.95;;;14.00;96.90;;;;;;5056176;28;20031;-69
2021/10/27 05:01:09;;;;;;;14.38;10.15;;;14.00;96.90;;;;;;5056048;28;20100;-69
2021/10/27 05:03:35;;;;;;;12.85;10.40;;;14.00;97.00;;;;;;5055984;28;20033;-70
2021/10/27 05:06:02;;;;;;;11.85;9.70;;;14.00;97.00;;;;;;5055038;28;20049;-82
2021/10/27 05:08:30;;;;;;;13.25;9.65;;;14.00;96.90;;;;;;5055998;28;20400;-69
2021/10/27 05:10:56;;;;;;;12.63;9.52;;;14.00;97.00;;;;;;5055897;28;20033;-71
2021/10/27 05:13:22;;;;;;;14.05;10.48;;;14.10;96.90;;;;;;5050297;28;20021;-71
2021/10/27 05:15:48;;;;;;;12.43;9.73;;;14.10;96.90;;;;;;5038424;28;20021;-68
2021/10/27 05:18:15;;;;;;;12.95;10.10;;;14.10;96.90;;;;;;5035984;28;20032;-71
2021/10/27 05:20:42;;;;;;;14.68;10.15;;;14.10;96.90;;;;;;5036028;28;20060;-70
2021/10/27 05:23:07;;;;;;;15.20;9.70;;;14.10;96.80;;;;;;5035949;28;20196;-72
2021/10/27 05:25:33;;;;;;;13.48;10.32;;;14.00;96.80;;;;;;5035805;28;20112;-69
2021/10/27 05:27:59;;;;;;;12.70;9.98;;;14.00;96.90;;;;;;5036672;28;20029;-76
2021/10/27 05:30:27;;;;;;;16.70;10.27;;;14.00;97.00;;;;;;5043878;28;20029;-71
2021/10/27 05:32:56;;;;;;;14.93;10.02;;;14.00;97.00;;;;;;5053401;28;20025;-71
2021/10/27 05:35:24;;;;;;;12.40;9.88;;;14.00;96.90;;;;;;5055650;28;20017;-71
2021/10/27 05:37:50;;;;;;;13.80;9.85;;;14.00;96.90;;;;;;5054175;28;20466;-72
2021/10/27 05:40:15;;;;;;;13.27;9.55;;;14.00;96.90;;;;;;5045076;28;20075;-72
2021/10/27 05:42:41;;;;;;;15.65;10.00;;;14.00;96.90;;;;;;5037585;28;20057;-75
2021/10/27 05:45:10;;;;;;;14.68;10.30;;;14.10;96.90;;;;;;5043539;28;20037;-70
2021/10/27 05:47:40;;;;;;;14.07;9.68;;;14.10;96.70;;;;;;5041477;28;20511;-78
2021/10/27 05:55:33;;;;;;;14.07;10.45;;;14.10;96.60;;;;;;5055682;28;20505;-70
2021/10/27 05:57:59;;;;;;;14.27;10.20;;;14.10;96.50;;;;;;5055477;28;20123;-71
2021/10/27 06:00:25;;;;;;;13.55;9.90;;;14.20;96.50;;;;;;5054292;28;20430;-71
2021/10/27 06:02:51;;;;;;;14.85;9.60;;;14.20;96.40;;;;;;5055564;28;20059;-69
2021/10/27 06:05:17;;;;;;;13.45;9.88;;;14.10;96.40;;;;;;5055351;28;20500;-69
2021/10/27 06:07:42;;;;;;;13.68;9.98;;;14.10;96.30;;;;;;5046964;28;20098;-70
2021/10/27 06:10:12;;;;;;;14.63;10.63;;;14.20;96.20;;;;;;5042473;28;20064;-70
2021/10/27 06:12:38;;;;;;;15.18;10.27;;;14.20;96.20;;;;;;5070159;28;20045;-70
2021/10/27 06:15:05;;;;;;;14.95;10.55;;;14.20;96.40;;;;;;5076955;28;20025;-71
2021/10/27 06:17:31;;;;;;;14.35;10.38;;;14.20;96.00;;;;;;5064603;28;20029;-69
2021/10/27 06:19:57;;;;;;;12.30;9.27;;;14.20;95.90;;;;;;5057828;28;20049;-71
2021/10/27 06:22:23;;;;;;;12.45;9.68;;;14.20;95.80;;;;;;5057434;28;20044;-69
2021/10/27 06:24:49;;;;;;;14.38;9.13;;;14.30;95.80;;;;;;5054888;28;20051;-71
2021/10/27 06:27:15;;;;;;;13.15;8.82;;;14.30;95.70;;;;;;5055221;28;20080;-73
2021/10/27 06:29:48;;;;;;;15.27;8.60;;;14.40;95.60;;;;;;5054072;28;20437;-76
2021/10/27 06:32:31;;;;;;;14.50;9.25;;;14.40;95.40;;;;;;5055425;28;20089;-74
2021/10/27 06:35:05;;;;;;;12.73;8.63;;;14.50;95.30;;;;;;5054281;28;20037;-68
2021/10/27 06:48:27;;;;;;;16.05;9.32;;;15.20;94.20;;;;;;5053795;28;20090;-69
2021/10/27 06:50:53;;;;;;;13.38;8.82;;;15.30;94.00;;;;;;5054424;28;20033;-69
2021/10/27 06:53:19;;;;;;;10.57;8.15;;;15.30;93.80;;;;;;5054523;28;20025;-71
2021/10/27 06:55:45;;;;;;;16.17;8.32;;;15.40;93.60;;;;;;5054490;28;20029;-75
2021/10/27 06:58:13;;;;;;;15.13;8.52;;;15.50;93.40;;;;;;5054736;28;20028;-77
2021/10/27 07:00:47;;;;;;;12.02;8.15;;;15.60;93.20;;;;;;5054005;28;20462;-77
2021/10/27 07:03:37;;;;;;;11.90;7.50;;;15.70;92.90;;;;;;5055022;28;20060;-74
2021/10/27 07:16:55;;;;;;;10.13;7.32;;;15.90;91.80;;;;;;5054381;28;20036;-72
2021/10/27 07:19:21;;;;;;;13.90;8.23;;;16.00;91.80;;;;;;5055767;28;20106;-69
2021/10/27 07:21:47;;;;;;;14.10;8.23;;;16.00;91.50;;;;;;5054669;28;20064;-70
2021/10/27 07:24:15;;;;;;;11.10;7.95;;;16.10;91.50;;;;;;5053207;28;20128;-71
2021/10/27 07:26:41;;;;;;;13.82;8.20;;;16.10;91.40;;;;;;5054143;28;20124;-70
2021/10/27 07:29:07;;;;;;;15.43;8.75;;;16.10;91.50;;;;;;5054339;28;20052;-71
2021/10/27 07:31:33;;;;;;;16.08;8.10;;;16.20;91.30;;;;;;5052832;28;20478;-70
2021/10/27 07:34:07;;;;;;;13.55;8.25;;;16.20;91.20;;;;;;5054214;28;20032;-69
2021/10/27 07:42:01;;;;;;;16.13;8.98;;;16.20;90.80;;;;;;5054497;28;20078;-70
2021/10/27 07:44:28;;;;;;;19.30;8.70;;;16.30;91.10;;;;;;5055076;28;20081;-69
2021/10/27 07:46:55;;;;;;;13.63;8.15;;;16.30;90.90;;;;;;5063459;28;20017;-73
2021/10/27 07:49:21;;;;;;;13.98;8.60;;;16.20;90.90;;;;;;5059934;28;20108;-70
2021/10/27 07:51:46;;;;;;;12.50;7.82;;;16.20;90.90;;;;;;5058406;28;20502;-68
2021/10/27 07:54:14;;;;;;;13.43;8.07;;;16.20;90.90;;;;;;5056509;28;20433;-69
2021/10/27 07:56:39;;;;;;;12.82;7.45;;;16.10;91.00;;;;;;5055401;28;20093;-69
2021/10/27 07:59:05;;;;;;;13.40;8.30;;;16.10;91.00;;;;;;5054665;28;20409;-69
2021/10/27 08:01:31;;;;;;;12.57;8.13;;;16.20;91.00;;;;;;5054042;28;20028;-73
2021/10/27 08:03:59;;;;;;;12.55;8.90;;;16.20;90.90;;;;;;5053644;28;20519;-70
2021/10/27 08:06:25;;;;;;;13.55;7.70;;;16.20;91.20;;;;;;5054601;28;20108;-70
2021/10/27 08:08:50;;;;;;;11.93;7.80;;;16.30;90.90;;;;;;5056349;28;20060;-72
2021/10/27 08:11:16;;;;;;;11.27;7.65;;;16.30;90.80;;;;;;5055183;28;20025;-68
2021/10/27 08:13:42;;;;;;;13.07;8.10;;;16.30;90.80;;;;;;5054126;28;20025;-72
2021/10/27 08:16:08;;;;;;;11.70;7.70;;;16.40;90.90;;;;;;5053413;28;20068;-68
2021/10/27 08:18:34;;;;;;;12.80;8.55;;;16.40;90.70;;;;;;5053073;28;20033;-70
2021/10/27 08:21:00;;;;;;;11.60;7.50;;;16.40;90.70;;;;;;5053785;28;20032;-73
2021/10/27 08:23:30;;;;;;;13.57;7.45;;;16.50;90.60;;;;;;5053584;28;20049;-71
2021/10/27 08:25:58;;;;;;;15.98;7.82;;;16.50;90.40;;;;;;5057069;28;20432;-70
2021/10/27 08:28:33;;;;;;;9.50;6.93;;;16.50;90.40;;;;;;5057079;28;20134;-68
2021/10/27 08:35:56;;;;;;;15.30;7.50;;;16.60;90.20;;;;;;5056600;28;20057;-69
2021/10/27 08:38:22;;;;;;;10.23;6.75;;;16.70;90.00;;;;;;5056508;28;20037;-69
2021/10/27 08:40:49;;;;;;;12.55;6.90;;;16.70;89.70;;;;;;5056480;28;20029;-69
2021/10/27 08:43:15;;;;;;;11.38;6.82;;;16.80;89.70;;;;;;5056148;28;20017;-70
2021/10/27 08:45:42;;;;;;;11.25;7.65;;;16.80;89.50;;;;;;5056246;28;20104;-70
2021/10/27 08:48:09;;;;;;;11.90;7.22;;;16.80;89.40;;;;;;5056315;28;20057;-67
2021/10/27 08:50:35;;;;;;;16.55;7.00;;;16.80;89.20;;;;;;5056099;28;20071;-69
2021/10/27 08:53:02;;;;;;;12.20;7.25;;;16.90;89.20;;;;;;5056177;28;20021;-70
2021/10/27 08:55:29;;;;;;;12.43;8.25;;;16.90;89.10;;;;;;5055984;28;20021;-67
2021/10/27 08:57:56;;;;;;;9.65;6.43;;;17.00;88.70;;;;;;5056216;28;20037;-70
2021/10/27 09:15:19;;;;;;;15.17;6.13;;;17.60;85.90;;;;;;5055871;28;20120;-71
2021/10/27 09:34:35;;;;;;;9.55;5.65;;;18.00;81.90;;;;;;5056392;28;20500;-70
2021/10/27 10:05:05;;;;;;;11.43;5.72;;;18.90;77.20;;;;;;5063723;28;20140;-70
2021/10/27 10:07:34;;;;;;;12.05;6.25;;;19.10;77.40;;;;;;5054725;28;20108;-67
2021/10/27 10:10:03;;;;;;;12.80;6.32;;;19.10;76.40;;;;;;5054645;28;20017;-70
2021/10/27 10:12:40;;;;;;;10.75;6.15;;;19.20;76.70;;;;;;5054422;28;20429;-69
2021/10/27 10:15:06;;;;;;;9.52;6.28;;;19.20;77.30;;;;;;5054100;28;20074;-68
2021/10/27 10:17:35;;;;;;;9.25;5.10;;;19.20;76.00;;;;;;5054506;28;20429;-69
2021/10/27 10:20:01;;;;;;;10.75;4.97;;;19.30;75.20;;;;;;5054160;28;20021;-69
2021/10/27 10:22:35;;;;;;;7.53;4.93;;;19.40;74.10;;;;;;5053857;28;20543;-67
2021/10/27 10:25:32;;;;;;;8.45;5.22;;;19.50;73.50;;;;;;5053887;28;20060;-69
2021/10/27 10:28:15;;;;;;;11.38;5.00;;;19.50;74.00;;;;;;5053563;28;20087;-68
2021/10/27 10:30:47;;;;;;;6.78;4.32;;;19.60;72.30;;;;;;5054057;28;20094;-70
2021/10/27 10:33:14;;;;;;;10.88;5.68;;;19.70;72.20;;;;;;5054166;28;20037;-67
2021/10/27 10:41:31;;;;;;;8.80;4.72;;;19.90;70.90;;;;;;5053848;28;20099;-69
2021/10/27 10:56:02;;;;;;;7.70;4.68;;;20.30;68.60;;;;;;5063339;28;20489;-70
2021/10/27 11:01:57;;;;;;;8.77;4.28;;;20.40;68.20;;;;;;5068889;28;20032;-69
2021/10/27 11:24:02;;;;;;;8.60;4.13;;;21.10;64.60;;;;;;5053096;28;20052;-69
2021/10/27 11:40:12;;;;;;;10.55;4.20;;;21.30;63.00;;;;;;5051995;28;20041;-68
2021/10/27 11:42:50;;;;;;;7.78;4.03;;;21.30;64.40;;;;;;5053039;28;20025;-68
2021/10/27 11:47:59;;;;;;;5.30;3.45;;;21.40;64.20;;;;;;5052909;28;20116;-68
2021/10/27 11:50:34;;;;;;;7.85;4.00;;;21.40;63.70;;;;;;5051715;28;20035;-68
2021/10/27 11:53:03;;;;;;;6.70;4.35;;;21.40;61.70;;;;;;5055619;28;20021;-73
2021/10/27 11:55:31;;;;;;;9.35;4.55;;;21.40;63.50;;;;;;5059921;28;20033;-75
2021/10/27 11:57:58;;;;;;;9.77;4.10;;;21.40;63.00;;;;;;5052213;28;20025;-69
2021/10/27 12:00:31;;;;;;;9.85;4.57;;;21.40;62.70;;;;;;5052320;28;20029;-69
2021/10/27 12:03:04;;;;;;;8.35;4.30;;;21.40;61.90;;;;;;5052662;28;20017;-69
2021/10/27 12:05:41;;;;;;;8.73;4.07;;;21.40;62.60;;;;;;5052820;28;20041;-68
2021/10/27 12:10:55;;;;;;;10.77;5.57;;;21.50;62.50;;;;;;5053133;28;20146;-69
2021/10/27 12:13:40;;;;;;;8.15;4.57;;;21.50;62.40;;;;;;5052570;28;20032;-69
2021/10/27 12:19:23;;;;;;;11.30;4.80;;;21.70;61.40;;;;;;5052654;28;20029;-68
2021/10/27 12:21:53;;;;;;;11.63;5.15;;;21.70;60.00;;;;;;5052451;28;20540;-70
2021/10/27 12:24:23;;;;;;;10.18;5.85;;;21.80;61.30;;;;;;5052639;28;20033;-69
2021/10/27 12:27:06;;;;;;;9.68;4.45;;;21.80;61.10;;;;;;5052785;28;20035;-71
2021/10/27 12:29:35;;;;;;;9.68;4.80;;;21.70;61.00;;;;;;5053055;28;20032;-66
2021/10/27 12:32:08;;;;;;;10.20;4.03;;;21.80;61.10;;;;;;5051334;28;20374;-70
2021/10/27 12:34:55;;;;;;;7.93;3.70;;;21.90;59.50;;;;;;5052736;28;20112;-69
2021/10/27 12:37:29;;;;;;;9.98;4.38;;;21.90;60.60;;;;;;5052831;28;20021;-70
2021/10/27 12:40:09;;;;;;;9.63;4.20;;;22.00;59.30;;;;;;5052747;28;20139;-70
2021/10/27 12:42:34;;;;;;;10.30;4.50;;;21.90;59.80;;;;;;5052399;28;20040;-71
2021/10/27 12:45:00;;;;;;;9.00;4.20;;;21.90;60.20;;;;;;5052954;28;20043;-70
2021/10/27 12:47:33;;;;;;;11.52;4.70;;;21.90;60.30;;;;;;5052394;28;20017;-72
2021/10/27 12:50:13;;;;;;;10.52;4.53;;;21.90;60.40;;;;;;5052582;28;20370;-69
2021/10/27 12:52:51;;;;;;;7.82;3.83;;;21.90;60.20;;;;;;5053290;28;20086;-79
2021/10/27 12:55:26;;;;;;;9.77;4.82;;;21.90;59.20;;;;;;5053062;28;20056;-69
2021/10/27 12:58:10;;;;;;;15.15;6.50;;;22.00;58.80;;;;;;5053018;28;20437;-69
2021/10/27 13:06:57;;;;;;;8.82;4.50;;;22.20;57.90;;;;;;5053533;28;20480;-68
2021/10/27 13:17:17;;;;;;;10.48;4.15;;;22.10;59.00;;;;;;5056293;28;20029;-68
2021/10/27 13:19:58;;;;;;;7.07;3.78;;;22.10;59.00;;;;;;5056206;28;20029;-69
2021/10/27 13:30:44;;;;;;;7.53;4.18;;;22.40;57.10;;;;;;5055363;28;20043;-71
2021/10/27 13:33:10;;;;;;;8.48;4.00;;;22.50;56.70;;;;;;5056400;28;20112;-69
2021/10/27 13:35:36;;;;;;;7.90;3.80;;;22.60;57.50;;;;;;5056135;28;20063;-70
2021/10/27 13:38:05;;;;;;;10.23;4.07;;;22.60;56.80;;;;;;5055676;28;20098;-73
2021/10/27 13:40:34;;;;;;;10.20;4.20;;;22.60;56.70;;;;;;5055725;28;20021;-68
2021/10/27 13:43:18;;;;;;;10.10;4.28;;;22.60;56.60;;;;;;5055346;28;20052;-68
2021/10/27 13:46:28;;;;;;;10.20;3.92;;;22.60;55.90;;;;;;5055143;28;20041;-69
2021/10/27 14:07:40;;;;;;;7.10;3.83;;;22.70;54.90;;;;;;5054388;28;20044;-68
2021/10/27 14:10:33;;;;;;;;;;;22.70;55.00;;;;;;5054558;28;20025;-69
2021/10/27 14:12:57;;;;;;;9.57;3.60;;;22.70;54.70;;;;;;5054139;28;19962;-69
2021/10/27 14:15:44;;;;;;;10.30;4.00;;;22.70;55.90;;;;;;5054161;28;20021;-70
2021/10/27 15:20:35;;;;;;;10.65;4.72;;;22.00;54.60;;;;;;5053568;28;20036;-68
2021/10/27 15:33:28;;;;;;;9.98;3.90;;;21.60;55.90;;;;;;5052969;28;20449;-68
2021/10/27 15:41:25;;;;;;;10.48;4.40;;;21.30;56.00;;;;;;5052825;28;20108;-68
2021/10/27 15:52:22;;;;;;;6.20;4.05;;;21.00;55.70;;;;;;5069985;28;20079;-68
2021/10/27 15:54:48;;;;;;;12.95;4.57;;;21.00;56.70;;;;;;5070115;28;20059;-70
2021/10/27 15:57:14;;;;;;;9.60;4.82;;;20.90;57.00;;;;;;5061643;28;20095;-69
2021/10/27 15:59:41;;;;;;;9.48;4.47;;;20.80;57.20;;;;;;5052586;28;20203;-70
2021/10/27 16:02:07;;;;;;;13.30;6.30;;;20.80;57.70;;;;;;5052691;28;20147;-69
2021/10/27 16:04:33;;;;;;;14.50;7.28;;;20.70;58.10;;;;;;5052563;28;20127;-73
2021/10/27 16:07:00;;;;;;;12.15;7.85;;;20.60;58.80;;;;;;5052254;28;20573;-74
2021/10/27 16:09:38;;;;;;;13.60;9.38;;;20.60;59.50;;;;;;5053065;28;20155;-68
2021/10/27 16:12:04;;;;;;;11.93;7.40;;;20.50;59.30;;;;;;5052454;28;20039;-68
2021/10/27 16:14:31;;;;;;;12.95;8.20;;;20.40;60.40;;;;;;5052447;28;20116;-69
2021/10/27 16:16:57;;;;;;;16.38;7.30;;;20.30;61.60;;;;;;5052258;28;20127;-67
2021/10/27 16:19:23;;;;;;;13.07;8.65;;;20.20;62.00;;;;;;5052378;28;20104;-69
2021/10/27 16:21:49;;;;;;;13.10;8.52;;;20.20;62.70;;;;;;5052077;28;20498;-68
2021/10/27 16:24:16;;;;;;;11.15;6.32;;;20.10;63.20;;;;;;5050969;28;20033;-69
2021/10/27 16:26:41;;;;;;;9.77;6.05;;;20.10;63.80;;;;;;5052081;28;20120;-68
2021/10/27 16:29:10;;;;;;;10.57;6.43;;;20.00;63.90;;;;;;5052418;28;20520;-70
2021/10/27 16:31:36;;;;;;;14.40;5.60;;;20.00;62.70;;;;;;5034328;28;20056;-70
2021/10/27 16:34:03;;;;;;;10.70;5.45;;;19.90;64.80;;;;;;5052324;28;20056;-69
2021/10/27 16:36:29;;;;;;;13.93;6.88;;;19.90;65.50;;;;;;5052124;28;20025;-68
2021/10/27 16:38:55;;;;;;;10.82;6.07;;;19.80;65.80;;;;;;5052294;28;20043;-68
2021/10/27 16:41:21;;;;;;;12.57;7.28;;;19.70;66.10;;;;;;5052147;28;20033;-68
2021/10/27 16:43:47;;;;;;;12.93;6.10;;;19.70;66.10;;;;;;5052269;28;20036;-68
2021/10/27 16:46:13;;;;;;;12.88;7.45;;;19.70;66.50;;;;;;5055005;28;20494;-70
2021/10/27 16:48:39;;;;;;;12.43;6.22;;;19.60;67.00;;;;;;5056243;28;20139;-68
2021/10/27 16:51:05;;;;;;;15.15;6.38;;;19.50;67.10;;;;;;5055969;28;20032;-69
2021/10/27 16:53:31;;;;;;;15.82;6.18;;;19.50;67.30;;;;;;5056189;28;20017;-70
2021/10/27 16:55:57;;;;;;;14.43;6.20;;;19.50;68.30;;;;;;5056154;28;20458;-71
2021/10/27 16:58:24;;;;;;;11.18;5.90;;;19.50;68.50;;;;;;5055965;28;20021;-68
2021/10/27 17:00:50;;;;;;;12.35;5.45;;;19.40;69.10;;;;;;5055710;28;20547;-70
2021/10/27 17:03:16;;;;;;;10.85;5.88;;;19.40;69.10;;;;;;5055802;28;20352;-69
2021/10/27 17:05:45;;;;;;;10.35;5.55;;;19.40;69.40;;;;;;5055443;28;20040;-69
2021/10/27 17:08:16;;;;;;;9.18;5.88;;;19.30;69.50;;;;;;5055680;28;20056;-70
2021/10/27 17:10:49;;;;;;;12.52;5.70;;;19.30;70.00;;;;;;5052054;28;20456;-70
2021/10/27 17:13:15;;;;;;;13.80;7.38;;;19.30;70.20;;;;;;5055234;28;20028;-70
2021/10/27 17:15:43;;;;;;;10.48;6.68;;;19.20;70.90;;;;;;5054952;28;20029;-69
2021/10/27 17:18:09;;;;;;;10.68;6.55;;;19.20;71.40;;;;;;5054368;28;20078;-70
2021/10/27 17:20:36;;;;;;;12.57;7.57;;;19.20;71.80;;;;;;5055096;28;20054;-70
2021/10/27 17:23:02;;;;;;;13.82;7.38;;;19.10;72.00;;;;;;5055347;28;20144;-70
2021/10/27 17:25:29;;;;;;;12.05;7.65;;;19.10;72.40;;;;;;5055605;28;20044;-71
2021/10/27 17:27:56;;;;;;;12.50;7.60;;;19.10;72.80;;;;;;5055388;28;20481;-74